Jarvis College, Texas
Current Conditions -  °F | °C
As of 10:15 AM on Friday 21 Nov 2014 (Local Time) from KJDD Reporting Station
Haze Haze  
Wind Chill: 61°   Ceiling: 400
Heat Index: 61°   Visibility: 4mi
Dew Point: 61°   Wind: 7mph
Humidity: 100%   Direction: 140°SE
Pressure: 30.18"   Gusts: NA
Location:  32.6661°N, 95.2425°W
Report Text: KJDD 211615Z AUTO 14006KT 4SM BR OVC004 16/16 A3018 RMK AO2
Loading
Personal Weather Stations






























Interactive Weather Map New forecast layout! Learn more

10-Day Weather Forecast

Advertisements
Track Severe Weather on mobile